createdAt,value
2018-02-26T00:00:08.856Z,-3.00
2018-02-26T00:02:35.073Z,-3.00
2018-02-26T00:05:01.288Z,-3.00
2018-02-26T00:07:27.557Z,-3.10
2018-02-26T00:09:53.848Z,-3.10
2018-02-26T00:12:20.049Z,-3.00
2018-02-26T00:14:46.267Z,-3.00
2018-02-26T00:17:13.203Z,-3.00
2018-02-26T00:19:39.435Z,-3.00
2018-02-26T00:22:05.650Z,-2.90
2018-02-26T00:24:31.877Z,-3.10
2018-02-26T00:26:58.117Z,-3.10
2018-02-26T00:29:24.305Z,-3.10
2018-02-26T00:31:51.232Z,-2.90
2018-02-26T00:34:18.197Z,-2.90
2018-02-26T00:36:44.431Z,-2.90
2018-02-26T00:39:10.649Z,-2.90
2018-02-26T00:41:40.093Z,-3.00
2018-02-26T00:44:06.297Z,-2.90
2018-02-26T00:46:32.526Z,-2.80
2018-02-26T00:48:58.721Z,-2.60
2018-02-26T00:51:24.928Z,-2.80
2018-02-26T00:53:51.146Z,-2.80
2018-02-26T00:56:17.365Z,-2.80
2018-02-26T00:58:44.323Z,-2.80
2018-02-26T01:01:11.257Z,-2.70
2018-02-26T01:03:37.488Z,-2.70
2018-02-26T01:06:03.677Z,-2.60
2018-02-26T01:08:29.923Z,-2.70
2018-02-26T01:10:56.129Z,-2.70
2018-02-26T01:13:23.087Z,-2.70
2018-02-26T01:15:49.322Z,-2.70
2018-02-26T01:18:16.284Z,-2.90
2018-02-26T01:20:42.513Z,-2.90
2018-02-26T01:23:08.701Z,-3.00
2018-02-26T01:25:34.909Z,-3.00
2018-02-26T01:28:01.136Z,-3.10
2018-02-26T01:30:28.093Z,-2.90
2018-02-26T01:32:54.350Z,-2.90
2018-02-26T01:35:20.834Z,-3.00
2018-02-26T01:40:44.483Z,-3.10
2018-02-26T01:43:10.685Z,-3.10
2018-02-26T01:45:36.872Z,-3.00
2018-02-26T01:48:03.085Z,-2.80
2018-02-26T01:50:29.286Z,-2.80
2018-02-26T01:52:56.222Z,-2.60
2018-02-26T01:55:25.193Z,-2.60
2018-02-26T01:57:51.405Z,-2.60
2018-02-26T02:00:17.825Z,-2.50
2018-02-26T02:02:44.173Z,-2.50
2018-02-26T02:05:11.118Z,-2.70
2018-02-26T02:07:37.336Z,-2.70
2018-02-26T02:10:03.538Z,-2.70
2018-02-26T02:12:29.766Z,-2.80
2018-02-26T02:14:56.009Z,-2.70
2018-02-26T02:17:22.202Z,-2.60
2018-02-26T02:19:48.436Z,-2.60
2018-02-26T02:22:15.632Z,-2.60
2018-02-26T02:24:41.808Z,-2.60
2018-02-26T02:27:08.017Z,-2.50
2018-02-26T02:29:34.217Z,-2.40
2018-02-26T02:32:00.503Z,-2.50
2018-02-26T02:34:26.724Z,-2.50
2018-02-26T02:36:52.935Z,-2.40
2018-02-26T02:39:19.186Z,-2.40
2018-02-26T02:41:45.534Z,-2.40
2018-02-26T02:44:11.872Z,-2.50
2018-02-26T02:46:38.049Z,-2.50
2018-02-26T02:49:04.272Z,-2.50
2018-02-26T02:51:30.466Z,-2.40
2018-02-26T02:53:56.645Z,-2.40
2018-02-26T02:56:23.608Z,-2.50
2018-02-26T02:58:49.817Z,-2.50
2018-02-26T03:01:16.073Z,-2.40
2018-02-26T03:03:42.289Z,-2.50
2018-02-26T03:06:08.501Z,-2.40
2018-02-26T03:08:34.700Z,-2.40
2018-02-26T03:11:01.000Z,-2.40
2018-02-26T03:13:27.176Z,-2.50
2018-02-26T03:15:53.780Z,-2.60
2018-02-26T03:18:19.968Z,-2.70
2018-02-26T03:20:46.148Z,-2.80
2018-02-26T03:23:12.400Z,-2.90
2018-02-26T03:25:38.644Z,-2.90
2018-02-26T03:28:04.887Z,-2.90
2018-02-26T03:30:31.098Z,-3.00
2018-02-26T03:33:01.035Z,-3.00
2018-02-26T03:35:27.260Z,-3.00
2018-02-26T03:37:53.440Z,-3.10
2018-02-26T03:40:19.621Z,-3.10
2018-02-26T03:42:45.814Z,-3.10
2018-02-26T03:45:12.008Z,-3.00
2018-02-26T03:47:39.018Z,-2.90
2018-02-26T03:50:05.235Z,-2.90
2018-02-26T03:52:31.432Z,-2.90
2018-02-26T03:54:57.637Z,-2.80
2018-02-26T03:57:23.857Z,-2.80
2018-02-26T03:59:50.036Z,-2.90
2018-02-26T04:02:16.268Z,-2.90
2018-02-26T04:04:42.472Z,-2.90
2018-02-26T04:07:09.092Z,-3.00
2018-02-26T04:09:36.101Z,-2.90
2018-02-26T04:12:02.299Z,-2.90
2018-02-26T04:14:29.267Z,-2.90
2018-02-26T04:16:56.269Z,-3.00
2018-02-26T04:19:22.480Z,-3.00
2018-02-26T04:21:48.720Z,-3.00
2018-02-26T04:24:14.934Z,-3.00
2018-02-26T04:26:41.137Z,-2.90
2018-02-26T04:29:07.335Z,-3.30
2018-02-26T04:31:33.514Z,-3.00
2018-02-26T04:33:59.739Z,-3.00
2018-02-26T04:36:25.990Z,-3.00
2018-02-26T04:38:52.232Z,-2.80
2018-02-26T04:41:21.192Z,-3.20
2018-02-26T04:43:48.941Z,-3.20
2018-02-26T04:46:15.145Z,-3.20
2018-02-26T04:48:41.505Z,-3.20
2018-02-26T04:51:07.681Z,-3.40
2018-02-26T04:53:33.894Z,-3.40
2018-02-26T04:56:00.104Z,-3.40
2018-02-26T04:58:26.296Z,-3.40
2018-02-26T05:00:52.509Z,-3.40
2018-02-26T05:03:18.837Z,-3.40
2018-02-26T05:05:45.176Z,-3.20
2018-02-26T05:08:11.419Z,-3.10
2018-02-26T05:10:37.601Z,-3.10
2018-02-26T05:13:04.772Z,-3.20
2018-02-26T05:15:30.966Z,-3.20
2018-02-26T05:17:57.164Z,-3.20
2018-02-26T05:20:24.157Z,-3.10
2018-02-26T05:22:50.357Z,-3.10
2018-02-26T05:25:16.563Z,-3.10
2018-02-26T05:27:42.760Z,-3.10
2018-02-26T05:30:08.949Z,-3.20
2018-02-26T05:32:35.972Z,-3.20
2018-02-26T05:35:02.181Z,-3.40
2018-02-26T05:37:28.206Z,-3.20
2018-02-26T05:39:54.245Z,-3.30
2018-02-26T05:42:21.034Z,-3.30
2018-02-26T05:44:47.063Z,-3.20
2018-02-26T05:47:13.135Z,-3.30
2018-02-26T05:49:39.158Z,-3.30
2018-02-26T05:52:05.178Z,-3.30
2018-02-26T05:54:31.241Z,-3.20
2018-02-26T05:56:57.268Z,-3.10
2018-02-26T05:59:23.312Z,-3.10
2018-02-26T06:01:50.438Z,-3.20
2018-02-26T06:04:16.472Z,-3.20
2018-02-26T06:06:42.486Z,-3.30
2018-02-26T06:09:09.226Z,-3.40
2018-02-26T06:11:35.233Z,-3.40
2018-02-26T06:14:01.252Z,-3.40
2018-02-26T06:16:27.276Z,-3.40
2018-02-26T06:18:58.461Z,-3.50
2018-02-26T06:21:24.500Z,-3.40
2018-02-26T06:23:50.746Z,-3.50
2018-02-26T06:26:16.805Z,-3.40
2018-02-26T06:28:42.829Z,-3.50
2018-02-26T06:31:08.882Z,-3.50
2018-02-26T06:33:34.948Z,-3.50
2018-02-26T06:36:01.708Z,-3.70
2018-02-26T06:38:27.725Z,-3.70
2018-02-26T06:40:53.738Z,-3.70
2018-02-26T06:43:19.779Z,-3.70
2018-02-26T06:45:45.893Z,-3.80
2018-02-26T06:48:12.073Z,-3.90
2018-02-26T06:50:38.921Z,-3.80
2018-02-26T06:53:05.701Z,-3.80
2018-02-26T06:55:32.450Z,-3.80
2018-02-26T06:57:59.262Z,-3.80
2018-02-26T07:00:25.302Z,-3.80
2018-02-26T07:02:51.445Z,-3.80
2018-02-26T07:05:17.462Z,-4.00
2018-02-26T08:29:39.695Z,-3.70
2018-02-26T08:32:05.886Z,-2.40
2018-02-26T08:34:32.115Z,-2.30
2018-02-26T08:36:59.059Z,-1.80
2018-02-26T08:39:26.152Z,-1.80
2018-02-26T08:41:52.338Z,-1.60
2018-02-26T08:44:18.629Z,-1.30
2018-02-26T08:46:45.972Z,-0.90
2018-02-26T08:49:12.158Z,-0.80
2018-02-26T08:51:38.376Z,-1.10
2018-02-26T08:54:05.322Z,-1.60
2018-02-26T08:56:31.581Z,-1.70
2018-02-26T08:58:58.540Z,-1.70
2018-02-26T09:01:25.488Z,-1.90
2018-02-26T09:03:51.721Z,-1.90
2018-02-26T09:06:18.684Z,-2.00
2018-02-26T09:08:44.916Z,-1.70
2018-02-26T09:11:11.112Z,-2.00
2018-02-26T09:13:37.309Z,-2.00
2018-02-26T09:16:03.509Z,-1.60
2018-02-26T09:18:29.749Z,-1.10
2018-02-26T09:20:58.281Z,-0.80
2018-02-26T09:23:24.626Z,-0.80
2018-02-26T09:25:50.820Z,-1.10
2018-02-26T09:28:17.102Z,-1.00
2018-02-26T09:30:43.533Z,-0.90
2018-02-26T09:33:09.692Z,-0.80
2018-02-26T09:35:35.925Z,-0.80
2018-02-26T09:38:02.109Z,-0.60
2018-02-26T09:40:28.304Z,-0.50
2018-02-26T09:42:57.226Z,-0.60
2018-02-26T09:45:23.401Z,-0.50
2018-02-26T09:47:49.605Z,-0.50
2018-02-26T09:53:20.630Z,-1.10
2018-02-26T09:55:46.628Z,-1.30
2018-02-26T09:58:16.825Z,-1.00
2018-02-26T10:00:42.858Z,-0.80
2018-02-26T10:03:08.860Z,-0.40
2018-02-26T10:05:34.864Z,-0.20
2018-02-26T10:08:00.893Z,-0.10
2018-02-26T10:10:26.940Z,0.00
2018-02-26T10:12:53.145Z,0.20
2018-02-26T10:15:19.344Z,0.20
2018-02-26T10:17:46.761Z,0.10
2018-02-26T10:20:12.778Z,0.00
2018-02-26T10:22:38.794Z,-0.60
2018-02-26T10:25:04.800Z,-0.50
2018-02-26T10:27:31.720Z,0.20
2018-02-26T10:29:57.901Z,0.20
2018-02-26T10:32:24.857Z,-0.10
2018-02-26T10:34:51.616Z,-0.10
2018-02-26T10:37:18.357Z,-0.30
2018-02-26T10:39:45.129Z,-0.50
2018-02-26T10:42:11.146Z,-0.50
2018-02-26T10:44:37.897Z,-0.30
2018-02-26T10:47:04.661Z,-0.50
2018-02-26T10:49:31.408Z,-0.50
2018-02-26T10:51:57.448Z,-0.50
2018-02-26T10:54:23.456Z,-0.70
2018-02-26T10:56:50.494Z,-1.00
2018-02-26T10:59:17.436Z,-1.10
2018-02-26T11:01:43.441Z,-1.10
2018-02-26T11:04:09.731Z,-1.10
2018-02-26T11:06:35.955Z,-0.90
2018-02-26T11:09:02.164Z,-0.90
2018-02-26T11:11:28.362Z,-0.80
2018-02-26T11:13:54.560Z,-0.60
2018-02-26T11:16:20.785Z,-0.50
2018-02-26T11:18:47.889Z,-0.10
2018-02-26T11:21:14.226Z,-0.20
2018-02-26T11:23:40.451Z,0.20
2018-02-26T11:26:06.696Z,0.40
2018-02-26T11:28:32.921Z,0.50
2018-02-26T11:30:59.913Z,-0.50
2018-02-26T11:33:26.121Z,-0.60
2018-02-26T11:35:52.323Z,-0.70
2018-02-26T11:38:18.533Z,-0.30
2018-02-26T11:40:44.780Z,0.10
2018-02-26T11:43:10.991Z,0.30
2018-02-26T11:45:37.329Z,0.10
2018-02-26T11:48:03.474Z,-0.20
2018-02-26T11:50:29.688Z,-0.30
2018-02-26T11:52:55.888Z,-0.70
2018-02-26T11:55:22.880Z,-0.80
2018-02-26T11:57:49.106Z,-0.80
2018-02-26T12:00:16.739Z,-0.70
2018-02-26T12:02:43.903Z,-0.60
2018-02-26T12:05:11.182Z,-0.60
2018-02-26T12:07:37.698Z,-0.60
2018-02-26T12:10:04.359Z,-0.70
2018-02-26T12:12:31.030Z,-0.80
2018-02-26T12:14:57.238Z,-0.90
2018-02-26T12:17:23.424Z,-0.80
2018-02-26T12:19:50.337Z,-0.30
2018-02-26T12:22:16.614Z,-0.40
2018-02-26T12:24:42.852Z,-0.40
2018-02-26T12:27:09.179Z,-0.60
2018-02-26T12:29:35.433Z,-0.80
2018-02-26T12:32:02.388Z,-1.00
2018-02-26T12:34:28.569Z,-1.00
2018-02-26T12:36:54.906Z,-1.10
2018-02-26T12:39:21.106Z,-1.10
2018-02-26T12:41:47.276Z,-1.10
2018-02-26T12:44:13.512Z,-1.10
2018-02-26T12:46:39.717Z,-1.00
2018-02-26T12:49:08.269Z,-0.60
2018-02-26T12:51:34.496Z,-0.50
2018-02-26T12:54:00.725Z,-0.50
2018-02-26T12:56:27.681Z,-0.40
2018-02-26T12:58:54.650Z,-0.40
2018-02-26T13:01:21.631Z,-0.50
2018-02-26T13:03:47.796Z,-0.50
2018-02-26T13:06:13.985Z,-0.70
2018-02-26T13:08:40.902Z,-1.00
2018-02-26T13:11:07.129Z,-1.10
2018-02-26T13:13:33.364Z,-0.90
2018-02-26T13:15:59.598Z,-0.30
2018-02-26T13:18:25.799Z,0.20
2018-02-26T13:20:52.043Z,0.70
2018-02-26T13:23:18.269Z,0.90
2018-02-26T13:25:47.424Z,0.40
2018-02-26T13:28:13.640Z,-0.10
2018-02-26T13:30:39.857Z,-0.50
2018-02-26T13:33:06.107Z,-0.80
2018-02-26T13:35:33.041Z,-1.20
2018-02-26T13:37:59.237Z,-1.20
2018-02-26T13:40:25.463Z,-1.10
2018-02-26T13:42:51.678Z,-1.20
2018-02-26T13:45:18.828Z,-0.30
2018-02-26T13:47:45.073Z,-0.40
2018-02-26T13:50:11.608Z,-0.10
2018-02-26T13:52:37.793Z,0.20
2018-02-26T13:55:03.973Z,0.40
2018-02-26T13:57:31.882Z,0.70
2018-02-26T13:59:58.853Z,0.60
2018-02-26T14:02:25.785Z,0.30
2018-02-26T14:04:52.829Z,-0.40
2018-02-26T14:07:19.032Z,-0.40
2018-02-26T14:09:45.302Z,-0.60
2018-02-26T14:12:11.516Z,-0.70
2018-02-26T14:14:38.166Z,-0.60
2018-02-26T14:17:04.356Z,-0.30
2018-02-26T14:19:30.771Z,-0.20
2018-02-26T14:21:56.989Z,0.00
2018-02-26T14:24:23.945Z,0.30
2018-02-26T14:26:51.053Z,0.30
2018-02-26T14:29:17.257Z,0.10
2018-02-26T14:31:43.477Z,0.10
2018-02-26T14:34:09.786Z,0.20
2018-02-26T14:36:36.005Z,0.30
2018-02-26T14:39:03.785Z,0.50
2018-02-26T14:41:30.033Z,0.50
2018-02-26T14:43:56.224Z,0.60
2018-02-26T14:46:22.527Z,0.60
2018-02-26T14:48:49.484Z,0.30
2018-02-26T14:51:15.776Z,0.30
2018-02-26T14:53:42.823Z,-0.30
2018-02-26T14:56:09.045Z,-0.20
2018-02-26T14:58:35.252Z,-0.40
2018-02-26T15:01:02.605Z,-0.30
2018-02-26T15:03:28.789Z,-0.30
2018-02-26T15:05:55.009Z,-0.40
2018-02-26T15:08:21.239Z,-0.50
2018-02-26T15:10:47.465Z,-0.60
2018-02-26T15:13:14.437Z,-0.80
2018-02-26T15:15:40.622Z,-0.80
2018-02-26T15:18:06.824Z,-0.70
2018-02-26T15:20:33.042Z,-0.70
2018-02-26T15:22:59.982Z,-0.70
2018-02-26T15:25:28.272Z,-0.80
2018-02-26T15:27:55.237Z,-1.00
2018-02-26T15:30:21.476Z,-1.00
2018-02-26T15:32:47.697Z,-0.90
2018-02-26T15:35:13.962Z,-1.00
2018-02-26T15:37:40.913Z,-1.00
2018-02-26T15:40:07.247Z,-1.00
2018-02-26T15:42:33.468Z,-1.10
2018-02-26T15:44:59.680Z,-1.10
2018-02-26T15:47:25.942Z,-1.00
2018-02-26T15:49:52.168Z,-0.90
2018-02-26T15:52:21.810Z,-0.80
2018-02-26T15:54:49.219Z,-0.60
2018-02-26T15:57:16.328Z,-0.50
2018-02-26T15:59:42.564Z,-0.50
2018-02-26T16:02:08.752Z,-0.40
2018-02-26T16:04:39.536Z,-0.70
2018-02-26T16:07:05.754Z,-0.70
2018-02-26T16:09:32.694Z,-0.80
2018-02-26T16:11:59.704Z,-0.80
2018-02-26T16:14:25.901Z,-0.80
2018-02-26T16:16:52.144Z,-0.80
2018-02-26T16:19:18.365Z,-1.00
2018-02-26T16:21:44.541Z,-1.00
2018-02-26T16:24:10.731Z,-0.90
2018-02-26T16:26:36.904Z,-0.90
2018-02-26T16:29:03.821Z,-0.90
2018-02-26T16:31:30.118Z,-0.90
2018-02-26T16:33:56.360Z,-1.00
2018-02-26T16:36:23.386Z,-1.10
2018-02-26T16:38:49.608Z,-1.10
2018-02-26T16:41:15.973Z,-1.10
2018-02-26T16:43:42.165Z,-1.20
2018-02-26T16:46:10.054Z,-1.30
2018-02-26T16:48:36.307Z,-1.40
2018-02-26T16:51:02.532Z,-1.50
2018-02-26T16:53:28.706Z,-1.50
2018-02-26T16:55:54.933Z,-1.80
2018-02-26T16:58:21.127Z,-1.70
2018-02-26T17:00:47.389Z,-1.70
2018-02-26T17:03:13.572Z,-1.80
2018-02-26T17:05:40.540Z,-1.90
2018-02-26T17:08:06.858Z,-1.90
2018-02-26T17:10:33.049Z,-1.80
2018-02-26T17:12:59.245Z,-1.80
2018-02-26T17:15:25.830Z,-2.00
2018-02-26T17:17:52.220Z,-2.10
2018-02-26T17:20:21.951Z,-2.00
2018-02-26T17:22:48.092Z,-2.00
2018-02-26T17:25:14.314Z,-2.00
2018-02-26T17:27:40.514Z,-2.20
2018-02-26T17:30:06.716Z,-2.30
2018-02-26T17:32:32.900Z,-2.40
2018-02-26T17:34:59.105Z,-2.30
2018-02-26T17:37:25.304Z,-2.20
2018-02-26T17:39:52.257Z,-2.30
2018-02-26T17:42:19.197Z,-2.40
2018-02-26T17:44:45.398Z,-2.40
2018-02-26T17:47:11.649Z,-2.10
2018-02-26T17:49:37.840Z,-2.40
2018-02-26T17:52:05.121Z,-2.40
2018-02-26T17:54:31.325Z,-2.30
2018-02-26T17:57:01.969Z,-2.20
2018-02-26T17:59:28.169Z,-2.10
2018-02-26T18:01:54.428Z,-2.20
2018-02-26T18:04:20.648Z,-2.20
2018-02-26T18:06:46.857Z,-1.90
2018-02-26T18:09:13.482Z,-1.80
2018-02-26T18:11:39.689Z,-1.90
2018-02-26T18:14:05.885Z,-1.90
2018-02-26T18:16:32.171Z,-1.90
2018-02-26T18:18:58.393Z,-1.90
2018-02-26T18:21:24.721Z,-2.00
2018-02-26T18:23:50.958Z,-1.90
2018-02-26T18:26:17.259Z,-1.90
2018-02-26T18:28:43.428Z,-2.00
2018-02-26T19:00:22.100Z,-2.50
2018-02-26T19:02:49.603Z,-2.50
2018-02-26T19:05:18.881Z,-2.50
2018-02-26T19:07:45.176Z,-2.50
2018-02-26T19:10:11.381Z,-2.50
2018-02-26T19:12:37.702Z,-2.30
2018-02-26T19:15:04.716Z,-2.40
2018-02-26T19:17:31.007Z,-2.40
2018-02-26T19:19:57.210Z,-2.40
2018-02-26T19:22:23.438Z,-2.40
2018-02-26T19:24:49.683Z,-2.40
2018-02-26T19:27:15.896Z,-2.50
2018-02-26T19:29:42.153Z,-2.40
2018-02-26T19:32:08.368Z,-2.30
2018-02-26T19:34:34.581Z,-2.30
2018-02-26T19:37:01.541Z,-2.40
2018-02-26T19:39:27.860Z,-2.40
2018-02-26T19:41:54.808Z,-2.40
2018-02-26T19:44:22.059Z,-2.40
2018-02-26T19:46:48.989Z,-2.40
2018-02-26T19:49:15.250Z,-2.30
2018-02-26T19:51:41.464Z,-2.30
2018-02-26T19:54:07.671Z,-2.40
2018-02-26T19:56:33.899Z,-2.30
2018-02-26T19:59:00.110Z,-2.30
2018-02-26T20:01:26.375Z,-2.10
2018-02-26T20:03:52.623Z,-2.20
2018-02-26T20:06:18.867Z,-2.40
2018-02-26T20:08:45.074Z,-2.30
2018-02-26T20:11:11.317Z,-2.30
2018-02-26T20:13:39.023Z,-2.30
2018-02-26T20:16:05.287Z,-2.40
2018-02-26T20:18:31.490Z,-2.30
2018-02-26T20:20:57.689Z,-2.20
2018-02-26T20:23:23.975Z,-2.20
2018-02-26T20:25:50.414Z,-2.20
2018-02-26T20:28:16.627Z,-2.30
2018-02-26T20:30:42.993Z,-2.30
2018-02-26T20:33:09.212Z,-2.40
2018-02-26T20:35:35.528Z,-2.40
2018-02-26T20:38:01.819Z,-2.40
2018-02-26T20:40:28.215Z,-2.30
2018-02-26T20:42:54.526Z,-2.20
2018-02-26T20:45:20.860Z,-2.10
2018-02-26T20:47:47.128Z,-2.10
2018-02-26T20:50:13.334Z,-2.10
2018-02-26T20:52:39.529Z,-2.10
2018-02-26T20:55:06.500Z,-2.20
2018-02-26T20:57:32.692Z,-2.20
2018-02-26T20:59:58.918Z,-2.20
2018-02-26T21:02:25.149Z,-2.20
2018-02-26T21:04:51.715Z,-2.20
2018-02-26T21:07:19.536Z,-2.20
2018-02-26T21:09:45.947Z,-2.20
2018-02-26T21:12:15.884Z,-2.20
2018-02-26T21:14:42.136Z,-2.20
2018-02-26T21:17:09.132Z,-2.00
2018-02-26T21:19:37.087Z,-2.10
2018-02-26T21:22:03.365Z,-2.10
2018-02-26T21:24:29.613Z,-2.10
2018-02-26T21:26:55.821Z,-2.10
2018-02-26T21:29:22.789Z,-2.20
2018-02-26T21:31:49.087Z,-2.20
2018-02-26T21:34:15.353Z,-2.20
2018-02-26T21:36:41.645Z,-2.30
2018-02-26T21:39:07.884Z,-2.40
2018-02-26T21:41:34.135Z,-2.40
2018-02-26T21:44:00.391Z,-2.50
2018-02-26T21:46:27.417Z,-2.60
2018-02-26T21:48:53.626Z,-2.60
2018-02-26T21:51:20.573Z,-2.70
2018-02-26T21:53:46.754Z,-2.70
2018-02-26T21:56:12.966Z,-2.70
2018-02-26T21:58:39.340Z,-2.60
2018-02-26T22:01:05.552Z,-2.70
2018-02-26T22:03:31.866Z,-2.80
2018-02-26T22:05:58.171Z,-2.80
2018-02-26T22:08:24.437Z,-2.80
2018-02-26T22:10:50.628Z,-2.90
2018-02-26T22:13:16.868Z,-3.00
2018-02-26T22:15:43.761Z,-3.00
2018-02-26T22:18:09.995Z,-2.90
2018-02-26T22:20:36.233Z,-3.00
2018-02-26T22:23:04.256Z,-2.90
2018-02-26T22:25:30.400Z,-2.90
2018-02-26T22:27:57.409Z,-3.00
2018-02-26T22:30:23.649Z,-3.00
2018-02-26T22:32:50.601Z,-3.10
2018-02-26T22:35:16.852Z,-3.10
2018-02-26T22:37:43.081Z,-3.00
2018-02-26T22:40:09.326Z,-3.10
2018-02-26T22:42:35.537Z,-3.20
2018-02-26T22:45:01.755Z,-3.30
2018-02-26T22:47:27.972Z,-3.20
2018-02-26T22:49:54.287Z,-3.30
2018-02-26T22:52:20.513Z,-3.40
2018-02-26T22:54:46.528Z,-3.40
2018-02-26T22:57:12.544Z,-3.50
2018-02-26T22:59:39.325Z,-3.50
2018-02-26T23:02:05.348Z,-3.50
2018-02-26T23:04:31.368Z,-3.50
2018-02-26T23:06:58.182Z,-3.50
2018-02-26T23:09:24.221Z,-3.50
2018-02-26T23:11:50.457Z,-3.40
2018-02-26T23:14:16.485Z,-3.60
2018-02-26T23:16:42.516Z,-3.70
2018-02-26T23:19:08.541Z,-3.80
2018-02-26T23:21:34.577Z,-3.80
2018-02-26T23:24:00.613Z,-3.70
2018-02-26T23:26:26.629Z,-3.80
2018-02-26T23:28:52.809Z,-3.80
2018-02-26T23:31:18.920Z,-3.80
2018-02-26T23:33:44.930Z,-3.90
2018-02-26T23:36:12.780Z,-4.00
2018-02-26T23:38:38.795Z,-4.00
2018-02-26T23:41:04.824Z,-4.00
2018-02-26T23:43:31.580Z,-3.90
2018-02-26T23:45:57.595Z,-3.90
2018-02-26T23:48:23.613Z,-4.00
2018-02-26T23:50:49.698Z,-4.00
2018-02-26T23:53:15.733Z,-4.00
2018-02-26T23:55:41.773Z,-4.00
2018-02-26T23:58:08.033Z,-4.00
